עמוד ראשי
METAR-TAF:

METAR-TAF

שדות תעופה :

ארביל, עיראק

קו רוחב: 36-14-15N, קו אורך: 43-57-47E, גובה: 415מטר

תצפית מזג אוויר נוכחית

הדו"ח נערך לפני 23דקות, בשעה 22:00 UTC
רוח 2קשר עם כיוונים משתנים
טמפרטורת 33 צלסיוס
לחות 21%
לחץ 1001 hPa
ראות: 8000מטר

METAR: ORER 222200Z VRB02KT 8000 NSC 33/08 Q1001

זמן: 01:23 (22:23 UTC)

תחזית

הדו"ח נערך לפני 6 שעות ו 23דקות, בשעה 16:00 UTC
תחזית בתוקף מ 22 ב 18 UTC עד 23 ב 18 UTC
רוח 5קשר מכיוון צפון/צפון-מערב
ראות: 7000מטר
יעשה מ
23 ב 07 UTC עד 23 ב 09 UTC
רוח 10קשר מכיוון מערב

TAF: ORER 221600Z 2218/2318 34005KT 7000 NSC BECMG 2307/2309 27010KT

תצפיות ותחזיות מזג אוויר לגבי יותר מ- 4,000 שדות תעופה ברחבי העולם. דוחות METAR ו- TAF.

התחנות הזמינות מסומנות בנקודות צהובות ואדומות על גבי המפה.

העבר את העכבר לנקודה הצבעונית על מנת לראות את שם התחנה.

לאחר מכן, לחץ כדי לראות את תוכן ואת תחזיות מזג האוויר.

כדי לשנות את המפה: לחץ על הכפתורים הירוקים עם הפלוס השחור כדי להתקרב; על הכפתור הירוק עם המקף כדי להתרחק; או בחיצים הירוקים למפות סמוכות.


METAR-TAF: